sensor_id;sensor_type;location;lat;lon;timestamp;temperature;humidity
10964;DHT22;5534;48.784;9.190;2023-01-15T00:01:33;11.40;99.90
10964;DHT22;5534;48.784;9.190;2023-01-15T00:04:00;11.50;99.90
10964;DHT22;5534;48.784;9.190;2023-01-15T00:06:29;11.60;99.90
10964;DHT22;5534;48.784;9.190;2023-01-15T00:08:55;11.50;99.90
10964;DHT22;5534;48.784;9.190;2023-01-15T00:11:24;11.50;99.90
10964;DHT22;5534;48.784;9.190;2023-01-15T00:13:50;11.60;99.90
10964;DHT22;5534;48.784;9.190;2023-01-15T00:16:21;11.60;99.90
10964;DHT22;5534;48.784;9.190;2023-01-15T00:18:56;11.60;99.90
10964;DHT22;5534;48.784;9.190;2023-01-15T00:21:24;11.60;99.90
10964;DHT22;5534;48.784;9.190;2023-01-15T00:23:50;11.70;99.90
10964;DHT22;5534;48.784;9.190;2023-01-15T00:26:35;11.60;99.90
10964;DHT22;5534;48.784;9.190;2023-01-15T00:29:20;11.70;99.90
10964;DHT22;5534;48.784;9.190;2023-01-15T00:32:04;11.60;99.90
10964;DHT22;5534;48.784;9.190;2023-01-15T00:34:31;11.70;99.90
10964;DHT22;5534;48.784;9.190;2023-01-15T00:37:00;11.70;99.90
10964;DHT22;5534;48.784;9.190;2023-01-15T00:39:26;11.70;99.90
10964;DHT22;5534;48.784;9.190;2023-01-15T00:41:53;11.80;99.90
10964;DHT22;5534;48.784;9.190;2023-01-15T00:44:19;11.70;99.90
10964;DHT22;5534;48.784;9.190;2023-01-15T00:46:45;11.70;99.90
10964;DHT22;5534;48.784;9.190;2023-01-15T00:49:11;11.60;99.90
10964;DHT22;5534;48.784;9.190;2023-01-15T00:51:37;11.80;99.90
10964;DHT22;5534;48.784;9.190;2023-01-15T00:54:04;11.80;99.90
10964;DHT22;5534;48.784;9.190;2023-01-15T00:56:30;11.80;99.90
10964;DHT22;5534;48.784;9.190;2023-01-15T00:58:56;11.80;99.90
10964;DHT22;5534;48.784;9.190;2023-01-15T01:01:21;11.80;99.90
10964;DHT22;5534;48.784;9.190;2023-01-15T01:03:50;11.90;99.90
10964;DHT22;5534;48.784;9.190;2023-01-15T01:06:18;11.90;99.90
10964;DHT22;5534;48.784;9.190;2023-01-15T01:08:44;11.90;99.90
10964;DHT22;5534;48.784;9.190;2023-01-15T01:11:14;11.80;99.90
10964;DHT22;5534;48.784;9.190;2023-01-15T01:13:40;11.80;99.90
10964;DHT22;5534;48.784;9.190;2023-01-15T01:16:31;11.70;99.90
10964;DHT22;5534;48.784;9.190;2023-01-15T01:19:02;11.70;99.90
10964;DHT22;5534;48.784;9.190;2023-01-15T01:21:29;11.90;99.90
10964;DHT22;5534;48.784;9.190;2023-01-15T01:23:57;12.00;99.90
10964;DHT22;5534;48.784;9.190;2023-01-15T01:26:23;12.00;99.90
10964;DHT22;5534;48.784;9.190;2023-01-15T01:28:50;12.00;99.90
10964;DHT22;5534;48.784;9.190;2023-01-15T01:31:17;12.10;99.90
10964;DHT22;5534;48.784;9.190;2023-01-15T01:33:42;12.10;99.90
10964;DHT22;5534;48.784;9.190;2023-01-15T01:36:08;12.00;99.90
10964;DHT22;5534;48.784;9.190;2023-01-15T01:38:34;12.00;99.90
10964;DHT22;5534;48.784;9.190;2023-01-15T01:41:00;12.10;99.90
10964;DHT22;5534;48.784;9.190;2023-01-15T01:43:28;11.90;99.90
10964;DHT22;5534;48.784;9.190;2023-01-15T01:45:54;11.80;99.90
10964;DHT22;5534;48.784;9.190;2023-01-15T01:48:25;11.70;99.90
10964;DHT22;5534;48.784;9.190;2023-01-15T01:50:54;11.70;99.90
10964;DHT22;5534;48.784;9.190;2023-01-15T01:53:23;11.90;99.90
10964;DHT22;5534;48.784;9.190;2023-01-15T01:55:50;11.90;99.90
10964;DHT22;5534;48.784;9.190;2023-01-15T01:58:19;11.90;99.90
10964;DHT22;5534;48.784;9.190;2023-01-15T02:00:49;11.80;99.90
10964;DHT22;5534;48.784;9.190;2023-01-15T02:03:16;11.80;99.90
10964;DHT22;5534;48.784;9.190;2023-01-15T02:05:49;11.70;99.90
10964;DHT22;5534;48.784;9.190;2023-01-15T02:08:16;11.70;99.90
10964;DHT22;5534;48.784;9.190;2023-01-15T02:10:41;11.70;99.90
10964;DHT22;5534;48.784;9.190;2023-01-15T02:13:14;11.70;99.90
10964;DHT22;5534;48.784;9.190;2023-01-15T02:15:46;11.80;99.90
10964;DHT22;5534;48.784;9.190;2023-01-15T02:20:49;11.80;99.90
10964;DHT22;5534;48.784;9.190;2023-01-15T02:28:44;11.80;99.90
10964;DHT22;5534;48.784;9.190;2023-01-15T02:31:16;11.80;99.90
10964;DHT22;5534;48.784;9.190;2023-01-15T02:33:50;11.90;99.90
10964;DHT22;5534;48.784;9.190;2023-01-15T02:36:22;11.70;99.90
10964;DHT22;5534;48.784;9.190;2023-01-15T02:38:50;11.60;99.90
10964;DHT22;5534;48.784;9.190;2023-01-15T02:41:21;11.60;99.90
10964;DHT22;5534;48.784;9.190;2023-01-15T02:43:51;11.90;99.90
10964;DHT22;5534;48.784;9.190;2023-01-15T02:46:21;11.80;99.90
10964;DHT22;5534;48.784;9.190;2023-01-15T02:48:52;11.80;99.90
10964;DHT22;5534;48.784;9.190;2023-01-15T02:51:26;11.80;99.90
10964;DHT22;5534;48.784;9.190;2023-01-15T02:53:55;11.80;99.90
10964;DHT22;5534;48.784;9.190;2023-01-15T02:56:26;11.80;99.90
10964;DHT22;5534;48.784;9.190;2023-01-15T02:58:58;11.80;99.90
10964;DHT22;5534;48.784;9.190;2023-01-15T03:01:32;11.90;99.90
10964;DHT22;5534;48.784;9.190;2023-01-15T03:07:04;11.90;99.90
10964;DHT22;5534;48.784;9.190;2023-01-15T03:09:32;12.00;99.90
10964;DHT22;5534;48.784;9.190;2023-01-15T03:18:02;11.90;99.90
10964;DHT22;5534;48.784;9.190;2023-01-15T03:20:10;11.90;99.90
10964;DHT22;5534;48.784;9.190;2023-01-15T03:22:39;12.00;99.90
10964;DHT22;5534;48.784;9.190;2023-01-15T03:25:18;11.90;99.90
10964;DHT22;5534;48.784;9.190;2023-01-15T03:27:45;11.90;99.90
10964;DHT22;5534;48.784;9.190;2023-01-15T03:30:13;11.80;99.90
10964;DHT22;5534;48.784;9.190;2023-01-15T03:32:40;11.90;99.90
10964;DHT22;5534;48.784;9.190;2023-01-15T03:35:07;11.90;99.90
10964;DHT22;5534;48.784;9.190;2023-01-15T03:37:52;11.90;99.90
10964;DHT22;5534;48.784;9.190;2023-01-15T03:40:18;11.90;99.90
10964;DHT22;5534;48.784;9.190;2023-01-15T03:43:00;11.90;99.90
10964;DHT22;5534;48.784;9.190;2023-01-15T03:45:49;12.00;99.90
10964;DHT22;5534;48.784;9.190;2023-01-15T03:48:27;12.10;99.90
10964;DHT22;5534;48.784;9.190;2023-01-15T03:53:41;12.10;99.90
10964;DHT22;5534;48.784;9.190;2023-01-15T03:56:15;12.30;99.90
10964;DHT22;5534;48.784;9.190;2023-01-15T03:58:47;12.40;99.90
10964;DHT22;5534;48.784;9.190;2023-01-15T04:01:17;12.40;99.90
10964;DHT22;5534;48.784;9.190;2023-01-15T04:03:45;12.50;99.90
10964;DHT22;5534;48.784;9.190;2023-01-15T04:06:13;12.50;99.90
10964;DHT22;5534;48.784;9.190;2023-01-15T04:08:41;12.50;99.90
10964;DHT22;5534;48.784;9.190;2023-01-15T04:11:08;12.60;99.90
10964;DHT22;5534;48.784;9.190;2023-01-15T04:13:33;12.60;99.90
10964;DHT22;5534;48.784;9.190;2023-01-15T04:16:00;12.60;99.90
10964;DHT22;5534;48.784;9.190;2023-01-15T04:18:26;12.70;99.90
10964;DHT22;5534;48.784;9.190;2023-01-15T04:20:52;12.60;99.90
10964;DHT22;5534;48.784;9.190;2023-01-15T04:23:20;12.50;99.90
10964;DHT22;5534;48.784;9.190;2023-01-15T04:25:46;12.60;99.90
10964;DHT22;5534;48.784;9.190;2023-01-15T04:28:12;12.70;99.90
10964;DHT22;5534;48.784;9.190;2023-01-15T04:30:38;12.60;99.90
10964;DHT22;5534;48.784;9.190;2023-01-15T04:33:04;12.60;99.90
10964;DHT22;5534;48.784;9.190;2023-01-15T04:35:30;12.60;99.90
10964;DHT22;5534;48.784;9.190;2023-01-15T04:37:59;12.70;99.90
10964;DHT22;5534;48.784;9.190;2023-01-15T04:40:25;12.60;99.90
10964;DHT22;5534;48.784;9.190;2023-01-15T04:43:11;12.60;99.90
10964;DHT22;5534;48.784;9.190;2023-01-15T04:45:56;12.50;99.90
10964;DHT22;5534;48.784;9.190;2023-01-15T04:48:22;12.50;99.90
10964;DHT22;5534;48.784;9.190;2023-01-15T04:50:47;12.40;99.90
10964;DHT22;5534;48.784;9.190;2023-01-15T04:53:13;12.40;99.90
10964;DHT22;5534;48.784;9.190;2023-01-15T04:55:39;12.50;99.90
10964;DHT22;5534;48.784;9.190;2023-01-15T04:58:05;12.60;99.90
10964;DHT22;5534;48.784;9.190;2023-01-15T05:00:30;12.50;99.90
10964;DHT22;5534;48.784;9.190;2023-01-15T05:02:56;12.60;99.90
10964;DHT22;5534;48.784;9.190;2023-01-15T05:05:22;12.60;99.90
10964;DHT22;5534;48.784;9.190;2023-01-15T05:07:47;12.70;99.90
10964;DHT22;5534;48.784;9.190;2023-01-15T05:10:13;12.60;99.90
10964;DHT22;5534;48.784;9.190;2023-01-15T05:12:39;12.70;99.90
10964;DHT22;5534;48.784;9.190;2023-01-15T05:15:05;12.60;99.90
10964;DHT22;5534;48.784;9.190;2023-01-15T05:17:32;12.60;99.90
10964;DHT22;5534;48.784;9.190;2023-01-15T05:19:58;12.70;99.90
10964;DHT22;5534;48.784;9.190;2023-01-15T05:22:23;12.90;99.90
10964;DHT22;5534;48.784;9.190;2023-01-15T05:24:49;13.00;99.90
10964;DHT22;5534;48.784;9.190;2023-01-15T05:27:15;13.20;99.90
10964;DHT22;5534;48.784;9.190;2023-01-15T05:29:41;12.80;99.90
10964;DHT22;5534;48.784;9.190;2023-01-15T05:32:06;12.30;99.90
10964;DHT22;5534;48.784;9.190;2023-01-15T05:34:32;11.80;99.90
10964;DHT22;5534;48.784;9.190;2023-01-15T05:36:58;11.60;99.90
10964;DHT22;5534;48.784;9.190;2023-01-15T05:39:23;11.50;99.90
10964;DHT22;5534;48.784;9.190;2023-01-15T05:41:49;11.10;99.90
10964;DHT22;5534;48.784;9.190;2023-01-15T05:44:26;11.00;99.90
10964;DHT22;5534;48.784;9.190;2023-01-15T05:46:55;11.00;99.90
10964;DHT22;5534;48.784;9.190;2023-01-15T05:49:22;11.00;99.90
10964;DHT22;5534;48.784;9.190;2023-01-15T05:51:49;10.80;99.90
10964;DHT22;5534;48.784;9.190;2023-01-15T05:54:23;10.60;99.90
10964;DHT22;5534;48.784;9.190;2023-01-15T05:56:49;10.70;99.90
10964;DHT22;5534;48.784;9.190;2023-01-15T05:59:17;10.80;99.90
10964;DHT22;5534;48.784;9.190;2023-01-15T06:01:43;10.80;99.90
10964;DHT22;5534;48.784;9.190;2023-01-15T06:04:11;10.70;99.90
10964;DHT22;5534;48.784;9.190;2023-01-15T06:06:39;10.70;99.90
10964;DHT22;5534;48.784;9.190;2023-01-15T06:09:05;10.80;99.90
10964;DHT22;5534;48.784;9.190;2023-01-15T06:11:31;10.80;99.90
10964;DHT22;5534;48.784;9.190;2023-01-15T06:13:58;10.50;99.90
10964;DHT22;5534;48.784;9.190;2023-01-15T06:16:24;10.40;99.90
10964;DHT22;5534;48.784;9.190;2023-01-15T06:18:50;10.30;99.90
10964;DHT22;5534;48.784;9.190;2023-01-15T06:21:16;10.50;99.90
10964;DHT22;5534;48.784;9.190;2023-01-15T06:23:42;10.60;99.90
10964;DHT22;5534;48.784;9.190;2023-01-15T06:26:16;10.70;99.90
10964;DHT22;5534;48.784;9.190;2023-01-15T06:28:43;10.50;99.90
10964;DHT22;5534;48.784;9.190;2023-01-15T06:31:15;10.30;99.90
10964;DHT22;5534;48.784;9.190;2023-01-15T06:33:43;10.50;99.90
10964;DHT22;5534;48.784;9.190;2023-01-15T06:36:17;10.60;99.90
10964;DHT22;5534;48.784;9.190;2023-01-15T06:38:43;10.60;99.90
10964;DHT22;5534;48.784;9.190;2023-01-15T06:41:13;10.50;99.90
10964;DHT22;5534;48.784;9.190;2023-01-15T06:43:58;10.50;99.90
10964;DHT22;5534;48.784;9.190;2023-01-15T06:46:45;10.20;99.90
10964;DHT22;5534;48.784;9.190;2023-01-15T06:49:30;10.30;99.90
10964;DHT22;5534;48.784;9.190;2023-01-15T06:51:56;10.10;99.90
10964;DHT22;5534;48.784;9.190;2023-01-15T06:54:22;10.10;99.90
10964;DHT22;5534;48.784;9.190;2023-01-15T06:56:48;10.10;99.90
10964;DHT22;5534;48.784;9.190;2023-01-15T06:59:14;10.00;99.90
10964;DHT22;5534;48.784;9.190;2023-01-15T07:01:39;9.90;99.90
10964;DHT22;5534;48.784;9.190;2023-01-15T07:04:05;10.00;99.90
10964;DHT22;5534;48.784;9.190;2023-01-15T07:06:31;10.00;99.90
10964;DHT22;5534;48.784;9.190;2023-01-15T07:08:56;9.60;99.90
10964;DHT22;5534;48.784;9.190;2023-01-15T07:11:22;9.70;99.90
10964;DHT22;5534;48.784;9.190;2023-01-15T07:13:48;9.80;99.90
10964;DHT22;5534;48.784;9.190;2023-01-15T07:16:14;9.90;99.90
10964;DHT22;5534;48.784;9.190;2023-01-15T07:18:55;9.80;99.90
10964;DHT22;5534;48.784;9.190;2023-01-15T07:21:21;9.80;99.90
10964;DHT22;5534;48.784;9.190;2023-01-15T07:23:47;9.60;99.90
10964;DHT22;5534;48.784;9.190;2023-01-15T07:26:13;9.50;99.90
10964;DHT22;5534;48.784;9.190;2023-01-15T07:28:39;9.50;99.90
10964;DHT22;5534;48.784;9.190;2023-01-15T07:31:05;9.40;99.90
10964;DHT22;5534;48.784;9.190;2023-01-15T07:33:31;9.30;99.90
10964;DHT22;5534;48.784;9.190;2023-01-15T07:35:57;9.30;99.90
10964;DHT22;5534;48.784;9.190;2023-01-15T07:38:22;9.40;99.90
10964;DHT22;5534;48.784;9.190;2023-01-15T07:40:48;9.10;99.90
10964;DHT22;5534;48.784;9.190;2023-01-15T07:43:34;9.10;99.90
10964;DHT22;5534;48.784;9.190;2023-01-15T07:46:18;9.10;99.90
10964;DHT22;5534;48.784;9.190;2023-01-15T07:49:07;9.10;99.90
10964;DHT22;5534;48.784;9.190;2023-01-15T07:51:51;9.10;99.90
10964;DHT22;5534;48.784;9.190;2023-01-15T07:54:17;9.10;99.90
10964;DHT22;5534;48.784;9.190;2023-01-15T07:56:43;9.20;99.90
10964;DHT22;5534;48.784;9.190;2023-01-15T07:59:09;9.50;99.90
10964;DHT22;5534;48.784;9.190;2023-01-15T08:01:34;9.60;99.90
10964;DHT22;5534;48.784;9.190;2023-01-15T08:04:00;9.60;99.90
10964;DHT22;5534;48.784;9.190;2023-01-15T08:06:26;9.70;99.90
10964;DHT22;5534;48.784;9.190;2023-01-15T08:08:51;9.60;99.90
10964;DHT22;5534;48.784;9.190;2023-01-15T08:11:17;9.50;99.90
10964;DHT22;5534;48.784;9.190;2023-01-15T08:14:01;9.50;99.90
10964;DHT22;5534;48.784;9.190;2023-01-15T08:16:45;9.50;99.90
10964;DHT22;5534;48.784;9.190;2023-01-15T08:19:11;9.50;99.90
10964;DHT22;5534;48.784;9.190;2023-01-15T08:21:37;9.50;99.90
10964;DHT22;5534;48.784;9.190;2023-01-15T08:24:02;9.50;99.90
10964;DHT22;5534;48.784;9.190;2023-01-15T08:26:28;9.60;99.90
10964;DHT22;5534;48.784;9.190;2023-01-15T08:28:54;9.60;99.90
10964;DHT22;5534;48.784;9.190;2023-01-15T08:31:20;9.70;99.90
10964;DHT22;5534;48.784;9.190;2023-01-15T08:33:45;9.60;99.90
10964;DHT22;5534;48.784;9.190;2023-01-15T08:36:11;9.30;99.90
10964;DHT22;5534;48.784;9.190;2023-01-15T08:38:37;9.10;99.90
10964;DHT22;5534;48.784;9.190;2023-01-15T08:41:03;8.90;99.90
10964;DHT22;5534;48.784;9.190;2023-01-15T08:43:30;8.90;99.90
10964;DHT22;5534;48.784;9.190;2023-01-15T08:46:02;9.00;99.90
10964;DHT22;5534;48.784;9.190;2023-01-15T08:48:29;9.10;99.90
10964;DHT22;5534;48.784;9.190;2023-01-15T08:50:55;9.30;99.90
10964;DHT22;5534;48.784;9.190;2023-01-15T08:53:21;9.50;99.90
10964;DHT22;5534;48.784;9.190;2023-01-15T08:55:49;9.60;99.90
10964;DHT22;5534;48.784;9.190;2023-01-15T08:58:16;9.40;99.90
10964;DHT22;5534;48.784;9.190;2023-01-15T09:00:42;9.30;99.90
10964;DHT22;5534;48.784;9.190;2023-01-15T09:03:08;9.40;99.90
10964;DHT22;5534;48.784;9.190;2023-01-15T09:05:37;9.30;99.90
10964;DHT22;5534;48.784;9.190;2023-01-15T09:08:04;9.40;99.90
10964;DHT22;5534;48.784;9.190;2023-01-15T09:10:30;9.60;99.90
10964;DHT22;5534;48.784;9.190;2023-01-15T09:13:01;9.60;99.90
10964;DHT22;5534;48.784;9.190;2023-01-15T09:15:28;9.60;99.90
10964;DHT22;5534;48.784;9.190;2023-01-15T09:17:55;9.70;99.90
10964;DHT22;5534;48.784;9.190;2023-01-15T09:20:21;9.70;99.90
10964;DHT22;5534;48.784;9.190;2023-01-15T09:22:46;9.80;99.90
10964;DHT22;5534;48.784;9.190;2023-01-15T09:25:14;9.90;99.90
10964;DHT22;5534;48.784;9.190;2023-01-15T09:27:41;9.80;99.90
10964;DHT22;5534;48.784;9.190;2023-01-15T09:30:09;9.80;99.90
10964;DHT22;5534;48.784;9.190;2023-01-15T09:32:39;9.80;99.90
10964;DHT22;5534;48.784;9.190;2023-01-15T09:35:05;9.80;99.90
10964;DHT22;5534;48.784;9.190;2023-01-15T09:37:31;9.80;99.90
10964;DHT22;5534;48.784;9.190;2023-01-15T09:39:56;9.90;99.90
10964;DHT22;5534;48.784;9.190;2023-01-15T09:42:54;9.80;99.90
10964;DHT22;5534;48.784;9.190;2023-01-15T09:45:40;9.80;99.90
10964;DHT22;5534;48.784;9.190;2023-01-15T09:51:45;9.70;99.90
10964;DHT22;5534;48.784;9.190;2023-01-15T09:57:14;9.60;99.90
10964;DHT22;5534;48.784;9.190;2023-01-15T09:59:44;9.60;99.90
10964;DHT22;5534;48.784;9.190;2023-01-15T10:02:28;9.30;99.90
10964;DHT22;5534;48.784;9.190;2023-01-15T10:05:14;9.00;99.90
10964;DHT22;5534;48.784;9.190;2023-01-15T10:07:52;9.20;99.90
10964;DHT22;5534;48.784;9.190;2023-01-15T10:10:21;9.30;99.90
10964;DHT22;5534;48.784;9.190;2023-01-15T10:12:52;9.10;99.90
10964;DHT22;5534;48.784;9.190;2023-01-15T10:15:47;9.00;99.90
10964;DHT22;5534;48.784;9.190;2023-01-15T10:18:18;9.30;99.90
10964;DHT22;5534;48.784;9.190;2023-01-15T10:26:34;9.50;99.90
10964;DHT22;5534;48.784;9.190;2023-01-15T10:29:12;9.50;99.90
10964;DHT22;5534;48.784;9.190;2023-01-15T10:31:52;9.50;99.90
10964;DHT22;5534;48.784;9.190;2023-01-15T10:37:02;9.10;99.90
10964;DHT22;5534;48.784;9.190;2023-01-15T10:45:35;9.10;99.90
10964;DHT22;5534;48.784;9.190;2023-01-15T10:48:15;9.10;99.90
10964;DHT22;5534;48.784;9.190;2023-01-15T10:50:44;9.00;99.90
10964;DHT22;5534;48.784;9.190;2023-01-15T10:56:08;8.90;99.90
10964;DHT22;5534;48.784;9.190;2023-01-15T11:01:12;8.60;99.90
10964;DHT22;5534;48.784;9.190;2023-01-15T11:03:41;8.60;99.90
10964;DHT22;5534;48.784;9.190;2023-01-15T11:06:30;8.30;99.90
10964;DHT22;5534;48.784;9.190;2023-01-15T11:08:57;8.20;99.90
10964;DHT22;5534;48.784;9.190;2023-01-15T11:14:16;8.10;99.90
10964;DHT22;5534;48.784;9.190;2023-01-15T11:17:02;8.00;99.90
10964;DHT22;5534;48.784;9.190;2023-01-15T11:19:36;8.00;99.90
10964;DHT22;5534;48.784;9.190;2023-01-15T11:22:16;8.00;99.90
10964;DHT22;5534;48.784;9.190;2023-01-15T11:24:53;8.00;99.90
10964;DHT22;5534;48.784;9.190;2023-01-15T11:27:23;8.00;99.90
10964;DHT22;5534;48.784;9.190;2023-01-15T11:29:53;8.10;99.90
10964;DHT22;5534;48.784;9.190;2023-01-15T11:32:40;8.30;99.90
10964;DHT22;5534;48.784;9.190;2023-01-15T11:35:17;8.20;99.90
10964;DHT22;5534;48.784;9.190;2023-01-15T11:37:43;8.30;99.90
10964;DHT22;5534;48.784;9.190;2023-01-15T11:40:17;8.30;99.90
10964;DHT22;5534;48.784;9.190;2023-01-15T11:42:47;8.30;99.90
10964;DHT22;5534;48.784;9.190;2023-01-15T11:45:32;8.30;99.90
10964;DHT22;5534;48.784;9.190;2023-01-15T11:48:21;8.30;99.90
10964;DHT22;5534;48.784;9.190;2023-01-15T11:51:08;8.30;99.90
10964;DHT22;5534;48.784;9.190;2023-01-15T11:53:44;8.50;99.90
10964;DHT22;5534;48.784;9.190;2023-01-15T11:56:15;8.50;99.90
10964;DHT22;5534;48.784;9.190;2023-01-15T11:58:48;8.30;99.90
10964;DHT22;5534;48.784;9.190;2023-01-15T12:01:29;8.20;99.90
10964;DHT22;5534;48.784;9.190;2023-01-15T12:03:57;7.90;99.90
10964;DHT22;5534;48.784;9.190;2023-01-15T12:06:26;8.10;99.90
10964;DHT22;5534;48.784;9.190;2023-01-15T12:09:06;8.20;99.90
10964;DHT22;5534;48.784;9.190;2023-01-15T12:14:48;8.10;99.90
10964;DHT22;5534;48.784;9.190;2023-01-15T12:23:25;8.10;99.90
10964;DHT22;5534;48.784;9.190;2023-01-15T12:26:12;7.50;99.90
10964;DHT22;5534;48.784;9.190;2023-01-15T12:31:47;7.50;99.90
10964;DHT22;5534;48.784;9.190;2023-01-15T12:37:05;7.60;99.90
10964;DHT22;5534;48.784;9.190;2023-01-15T12:39:51;7.30;99.90
10964;DHT22;5534;48.784;9.190;2023-01-15T12:42:20;7.50;99.90
10964;DHT22;5534;48.784;9.190;2023-01-15T12:45:44;7.50;99.90
10964;DHT22;5534;48.784;9.190;2023-01-15T12:50:48;7.50;99.90
10964;DHT22;5534;48.784;9.190;2023-01-15T12:53:33;7.50;99.90
10964;DHT22;5534;48.784;9.190;2023-01-15T12:56:13;7.80;99.90
10964;DHT22;5534;48.784;9.190;2023-01-15T13:01:49;7.90;99.90
10964;DHT22;5534;48.784;9.190;2023-01-15T13:05:40;8.10;99.90
10964;DHT22;5534;48.784;9.190;2023-01-15T13:07:38;7.90;99.90
10964;DHT22;5534;48.784;9.190;2023-01-15T13:12:43;7.70;99.90
10964;DHT22;5534;48.784;9.190;2023-01-15T13:15:13;7.70;99.90
10964;DHT22;5534;48.784;9.190;2023-01-15T13:18:14;8.00;99.90
10964;DHT22;5534;48.784;9.190;2023-01-15T13:20:49;7.90;99.90
10964;DHT22;5534;48.784;9.190;2023-01-15T13:31:56;8.20;99.90
10964;DHT22;5534;48.784;9.190;2023-01-15T13:34:29;8.20;99.90
10964;DHT22;5534;48.784;9.190;2023-01-15T13:37:02;8.40;99.90
10964;DHT22;5534;48.784;9.190;2023-01-15T13:39:38;8.40;99.90
10964;DHT22;5534;48.784;9.190;2023-01-15T13:42:17;8.60;99.90
10964;DHT22;5534;48.784;9.190;2023-01-15T13:47:31;8.50;99.90
10964;DHT22;5534;48.784;9.190;2023-01-15T13:50:00;8.50;99.90
10964;DHT22;5534;48.784;9.190;2023-01-15T13:52:33;8.70;99.90
10964;DHT22;5534;48.784;9.190;2023-01-15T13:55:25;8.60;99.90
10964;DHT22;5534;48.784;9.190;2023-01-15T13:57:52;8.50;99.90
10964;DHT22;5534;48.784;9.190;2023-01-15T14:00:35;8.60;99.90
10964;DHT22;5534;48.784;9.190;2023-01-15T14:03:25;8.60;99.90
10964;DHT22;5534;48.784;9.190;2023-01-15T14:06:00;8.60;99.90
10964;DHT22;5534;48.784;9.190;2023-01-15T14:08:46;8.70;99.90
10964;DHT22;5534;48.784;9.190;2023-01-15T14:14:11;8.50;99.90
10964;DHT22;5534;48.784;9.190;2023-01-15T14:17:04;8.70;99.90
10964;DHT22;5534;48.784;9.190;2023-01-15T14:19:38;8.70;99.90
10964;DHT22;5534;48.784;9.190;2023-01-15T14:22:39;8.60;99.90
10964;DHT22;5534;48.784;9.190;2023-01-15T14:25:39;8.80;99.90
10964;DHT22;5534;48.784;9.190;2023-01-15T14:31:13;9.00;99.90
10964;DHT22;5534;48.784;9.190;2023-01-15T14:36:28;8.80;99.90
10964;DHT22;5534;48.784;9.190;2023-01-15T14:38:59;9.00;99.90
10964;DHT22;5534;48.784;9.190;2023-01-15T14:41:34;8.80;99.90
10964;DHT22;5534;48.784;9.190;2023-01-15T14:44:29;8.90;99.90
10964;DHT22;5534;48.784;9.190;2023-01-15T14:47:02;8.80;99.90
10964;DHT22;5534;48.784;9.190;2023-01-15T14:49:29;8.50;99.90
10964;DHT22;5534;48.784;9.190;2023-01-15T14:51:56;8.60;99.90
10964;DHT22;5534;48.784;9.190;2023-01-15T14:54:23;8.40;99.90
10964;DHT22;5534;48.784;9.190;2023-01-15T14:56:55;8.50;99.90
10964;DHT22;5534;48.784;9.190;2023-01-15T14:59:57;8.30;99.90
10964;DHT22;5534;48.784;9.190;2023-01-15T15:02:37;8.30;99.90
10964;DHT22;5534;48.784;9.190;2023-01-15T15:05:05;8.40;99.90
10964;DHT22;5534;48.784;9.190;2023-01-15T15:07:39;8.50;99.90
10964;DHT22;5534;48.784;9.190;2023-01-15T15:15:18;8.40;99.90
10964;DHT22;5534;48.784;9.190;2023-01-15T15:20:42;8.50;99.90
10964;DHT22;5534;48.784;9.190;2023-01-15T15:23:42;8.50;99.90
10964;DHT22;5534;48.784;9.190;2023-01-15T15:26:25;8.50;99.90
10964;DHT22;5534;48.784;9.190;2023-01-15T15:29:12;8.70;99.90
10964;DHT22;5534;48.784;9.190;2023-01-15T15:31:48;8.60;99.90
10964;DHT22;5534;48.784;9.190;2023-01-15T15:34:35;8.40;99.90
10964;DHT22;5534;48.784;9.190;2023-01-15T15:37:13;8.50;99.90
10964;DHT22;5534;48.784;9.190;2023-01-15T15:39:40;8.10;99.90
10964;DHT22;5534;48.784;9.190;2023-01-15T15:42:24;8.00;99.90
10964;DHT22;5534;48.784;9.190;2023-01-15T15:45:19;7.90;99.90
10964;DHT22;5534;48.784;9.190;2023-01-15T15:53:47;8.10;99.90
10964;DHT22;5534;48.784;9.190;2023-01-15T15:56:13;7.90;99.90
10964;DHT22;5534;48.784;9.190;2023-01-15T15:58:39;8.20;99.90
10964;DHT22;5534;48.784;9.190;2023-01-15T16:01:10;8.40;99.90
10964;DHT22;5534;48.784;9.190;2023-01-15T16:03:36;8.20;99.90
10964;DHT22;5534;48.784;9.190;2023-01-15T16:06:18;8.20;99.90
10964;DHT22;5534;48.784;9.190;2023-01-15T16:08:56;8.30;99.90
10964;DHT22;5534;48.784;9.190;2023-01-15T16:11:26;8.30;99.90
10964;DHT22;5534;48.784;9.190;2023-01-15T16:13:54;8.30;99.90
10964;DHT22;5534;48.784;9.190;2023-01-15T16:16:24;8.30;99.90
10964;DHT22;5534;48.784;9.190;2023-01-15T16:18:52;8.50;99.90
10964;DHT22;5534;48.784;9.190;2023-01-15T16:21:33;8.40;99.90
10964;DHT22;5534;48.784;9.190;2023-01-15T16:24:05;8.30;99.90
10964;DHT22;5534;48.784;9.190;2023-01-15T16:26:37;8.40;99.90
10964;DHT22;5534;48.784;9.190;2023-01-15T16:29:06;8.40;99.90
10964;DHT22;5534;48.784;9.190;2023-01-15T16:31:40;8.10;99.90
10964;DHT22;5534;48.784;9.190;2023-01-15T16:34:06;8.10;99.90
10964;DHT22;5534;48.784;9.190;2023-01-15T16:36:40;8.00;99.90
10964;DHT22;5534;48.784;9.190;2023-01-15T16:39:22;8.10;99.90
10964;DHT22;5534;48.784;9.190;2023-01-15T16:41:49;8.10;99.90
10964;DHT22;5534;48.784;9.190;2023-01-15T16:44:31;8.00;99.90
10964;DHT22;5534;48.784;9.190;2023-01-15T16:47:00;7.90;99.90
10964;DHT22;5534;48.784;9.190;2023-01-15T16:49:31;7.80;99.90
10964;DHT22;5534;48.784;9.190;2023-01-15T16:51:59;7.90;99.90
10964;DHT22;5534;48.784;9.190;2023-01-15T17:02:11;8.10;99.90
10964;DHT22;5534;48.784;9.190;2023-01-15T17:04:39;7.90;99.90
10964;DHT22;5534;48.784;9.190;2023-01-15T17:09:45;8.20;99.90
10964;DHT22;5534;48.784;9.190;2023-01-15T17:12:28;8.20;99.90
10964;DHT22;5534;48.784;9.190;2023-01-15T17:17:40;7.90;99.90
10964;DHT22;5534;48.784;9.190;2023-01-15T17:20:10;7.70;99.90
10964;DHT22;5534;48.784;9.190;2023-01-15T17:22:41;7.60;99.90
10964;DHT22;5534;48.784;9.190;2023-01-15T17:27:51;7.80;99.90
10964;DHT22;5534;48.784;9.190;2023-01-15T17:30:19;7.90;99.90
10964;DHT22;5534;48.784;9.190;2023-01-15T17:32:45;7.80;99.90
10964;DHT22;5534;48.784;9.190;2023-01-15T17:37:45;7.90;99.90
10964;DHT22;5534;48.784;9.190;2023-01-15T17:40:11;8.00;99.90
10964;DHT22;5534;48.784;9.190;2023-01-15T17:42:37;7.90;99.90
10964;DHT22;5534;48.784;9.190;2023-01-15T17:45:02;7.70;99.90
10964;DHT22;5534;48.784;9.190;2023-01-15T17:47:28;7.70;99.90
10964;DHT22;5534;48.784;9.190;2023-01-15T17:49:54;7.80;99.90
10964;DHT22;5534;48.784;9.190;2023-01-15T17:52:20;7.80;99.90
10964;DHT22;5534;48.784;9.190;2023-01-15T17:54:46;7.50;99.90
10964;DHT22;5534;48.784;9.190;2023-01-15T17:57:31;7.40;99.90
10964;DHT22;5534;48.784;9.190;2023-01-15T18:00:15;7.60;99.90
10964;DHT22;5534;48.784;9.190;2023-01-15T18:03:00;7.70;99.90
10964;DHT22;5534;48.784;9.190;2023-01-15T18:05:46;7.60;99.90
10964;DHT22;5534;48.784;9.190;2023-01-15T18:08:12;7.70;99.90
10964;DHT22;5534;48.784;9.190;2023-01-15T18:10:38;7.70;99.90
10964;DHT22;5534;48.784;9.190;2023-01-15T18:13:07;7.60;99.90
10964;DHT22;5534;48.784;9.190;2023-01-15T18:15:33;7.90;99.90
10964;DHT22;5534;48.784;9.190;2023-01-15T18:17:58;8.00;99.90
10964;DHT22;5534;48.784;9.190;2023-01-15T18:20:24;8.00;99.90
10964;DHT22;5534;48.784;9.190;2023-01-15T18:22:50;7.90;99.90
10964;DHT22;5534;48.784;9.190;2023-01-15T18:25:16;7.60;99.90
10964;DHT22;5534;48.784;9.190;2023-01-15T18:27:41;7.60;99.90